createdAt,value
2022-09-19T00:01:12.775Z,0.30
2022-09-19T00:03:41.652Z,0.30
2022-09-19T00:06:10.754Z,0.40
2022-09-19T00:08:38.921Z,0.30
2022-09-19T00:11:08.479Z,0.30
2022-09-19T00:13:37.406Z,0.30
2022-09-19T00:16:05.826Z,0.30
2022-09-19T00:18:34.566Z,0.30
2022-09-19T00:21:02.053Z,0.20
2022-09-19T00:23:47.153Z,0.22
2022-09-19T00:26:19.708Z,0.20
2022-09-19T00:28:47.996Z,0.20
2022-09-19T00:31:18.591Z,0.30
2022-09-19T00:33:48.919Z,0.30
2022-09-19T00:36:17.428Z,0.30
2022-09-19T00:38:46.111Z,0.28
2022-09-19T00:41:16.324Z,0.20
2022-09-19T00:43:47.343Z,0.20
2022-09-19T00:46:14.738Z,0.28
2022-09-19T00:48:43.891Z,0.30
2022-09-19T00:51:15.119Z,0.25
2022-09-19T00:53:43.644Z,0.20
2022-09-19T00:56:12.110Z,0.30
2022-09-19T00:58:44.615Z,0.20
2022-09-19T01:01:12.328Z,0.30
2022-09-19T01:03:39.770Z,0.30
2022-09-19T01:06:21.958Z,0.28
2022-09-19T01:09:13.802Z,0.38
2022-09-19T01:11:58.364Z,0.40
2022-09-19T01:14:40.709Z,0.40
2022-09-19T01:17:13.783Z,0.40
2022-09-19T01:20:14.350Z,0.40
2022-09-19T01:22:56.316Z,0.30
2022-09-19T01:25:32.244Z,0.30
2022-09-19T01:28:12.241Z,0.40
2022-09-19T01:30:49.052Z,0.60
2022-09-19T01:33:19.966Z,0.55
2022-09-19T01:35:52.855Z,0.50
2022-09-19T01:38:25.356Z,0.40
2022-09-19T01:40:54.084Z,0.40
2022-09-19T01:43:22.742Z,0.30
2022-09-19T01:45:53.755Z,0.30
2022-09-19T01:48:26.635Z,0.30
2022-09-19T01:51:18.889Z,0.30
2022-09-19T01:54:01.591Z,0.30
2022-09-19T01:56:41.058Z,0.30
2022-09-19T01:59:23.001Z,0.30
2022-09-19T02:01:57.118Z,0.30
2022-09-19T02:04:27.419Z,0.30
2022-09-19T02:07:02.756Z,0.30
2022-09-19T02:09:41.220Z,0.30
2022-09-19T02:12:11.717Z,0.30
2022-09-19T02:14:43.448Z,0.30
2022-09-19T02:17:15.145Z,0.40
2022-09-19T02:19:45.834Z,0.40
2022-09-19T02:22:19.736Z,0.30
2022-09-19T02:24:49.401Z,0.30
2022-09-19T02:27:22.259Z,0.30
2022-09-19T02:29:55.801Z,0.30
2022-09-19T02:32:24.343Z,0.30
2022-09-19T02:34:54.663Z,0.30
2022-09-19T02:37:31.570Z,0.30
2022-09-19T02:40:05.027Z,0.30
2022-09-19T02:42:44.941Z,0.30
2022-09-19T02:45:18.907Z,0.38
2022-09-19T02:47:55.063Z,0.40
2022-09-19T02:50:27.526Z,0.38
2022-09-19T02:52:58.974Z,0.40
2022-09-19T02:55:30.575Z,0.30
2022-09-19T02:58:01.671Z,0.38
2022-09-19T03:00:32.446Z,0.30
2022-09-19T03:03:24.869Z,0.30
2022-09-19T03:05:54.729Z,0.30
2022-09-19T03:08:25.145Z,0.30
2022-09-19T03:10:57.240Z,0.30
2022-09-19T03:13:25.398Z,0.30
2022-09-19T03:16:03.080Z,0.30
2022-09-19T03:18:33.154Z,0.30
2022-09-19T03:21:03.641Z,0.30
2022-09-19T03:23:36.475Z,0.30
2022-09-19T03:26:04.214Z,0.32
2022-09-19T03:28:31.535Z,0.20
2022-09-19T03:31:00.290Z,0.30
2022-09-19T03:33:28.318Z,0.30
2022-09-19T03:35:57.330Z,0.30
2022-09-19T03:38:25.308Z,0.30
2022-09-19T03:40:52.662Z,0.30
2022-09-19T03:43:20.170Z,0.30
2022-09-19T03:45:47.682Z,0.30
2022-09-19T03:48:16.942Z,0.30
2022-09-19T03:50:44.281Z,0.40
2022-09-19T03:53:12.227Z,0.40
2022-09-19T03:55:41.227Z,0.40
2022-09-19T03:58:08.681Z,0.30
2022-09-19T04:00:36.071Z,0.30
2022-09-19T04:03:03.424Z,0.35
2022-09-19T04:05:33.502Z,0.40
2022-09-19T04:08:02.026Z,0.40
2022-09-19T04:10:29.367Z,0.30
2022-09-19T04:12:57.255Z,0.30
2022-09-19T04:15:25.671Z,0.30
2022-09-19T04:17:53.075Z,0.35
2022-09-19T04:20:20.506Z,0.38
2022-09-19T04:22:49.620Z,0.40
2022-09-19T04:25:17.206Z,0.50
2022-09-19T04:27:46.289Z,0.50
2022-09-19T04:30:16.241Z,0.45
2022-09-19T04:32:44.372Z,0.50
2022-09-19T04:35:12.147Z,0.40
2022-09-19T04:37:39.478Z,0.40
2022-09-19T04:40:09.314Z,0.50
2022-09-19T04:42:37.126Z,0.30
2022-09-19T04:45:05.006Z,0.40
2022-09-19T04:47:34.103Z,0.43
2022-09-19T04:50:04.638Z,0.30
2022-09-19T04:52:32.457Z,0.40
2022-09-19T04:54:59.815Z,0.40
2022-09-19T04:57:28.627Z,0.38
2022-09-19T04:59:56.963Z,0.50
2022-09-19T05:02:24.327Z,0.40
2022-09-19T05:04:52.619Z,0.40
2022-09-19T05:07:20.345Z,0.63
2022-09-19T05:09:47.670Z,0.50
2022-09-19T05:12:15.067Z,0.40
2022-09-19T05:14:43.711Z,0.30
2022-09-19T05:17:11.077Z,0.50
2022-09-19T05:19:38.410Z,0.50
2022-09-19T05:22:06.029Z,0.50
2022-09-19T05:24:33.399Z,0.50
2022-09-19T05:27:03.155Z,0.50
2022-09-19T05:29:30.500Z,0.40
2022-09-19T05:32:02.113Z,0.38
2022-09-19T05:34:29.627Z,0.40
2022-09-19T05:36:57.141Z,0.40
2022-09-19T05:39:24.531Z,0.40
2022-09-19T05:41:51.915Z,0.30
2022-09-19T05:44:19.283Z,0.50
2022-09-19T05:46:46.662Z,0.30
2022-09-19T05:49:15.339Z,0.40
2022-09-19T05:51:42.710Z,0.50
2022-09-19T05:54:09.255Z,0.40
2022-09-19T05:56:36.578Z,0.35
2022-09-19T05:59:04.110Z,0.50
2022-09-19T06:01:31.730Z,0.52
2022-09-19T06:04:00.929Z,0.60
2022-09-19T06:06:29.752Z,0.60
2022-09-19T06:09:00.031Z,0.50
2022-09-19T06:11:28.116Z,0.60
2022-09-19T06:14:13.030Z,0.50
2022-09-19T06:16:42.579Z,0.50
2022-09-19T06:19:10.549Z,0.60
2022-09-19T06:21:39.226Z,0.40
2022-09-19T06:24:08.407Z,0.40
2022-09-19T06:26:35.918Z,0.50
2022-09-19T06:29:04.415Z,0.43
2022-09-19T06:31:32.221Z,0.40
2022-09-19T06:33:59.649Z,0.40
2022-09-19T06:36:27.550Z,0.40
2022-09-19T06:38:56.222Z,0.30
2022-09-19T06:41:23.569Z,0.40
2022-09-19T06:43:51.135Z,0.30
2022-09-19T06:46:19.205Z,0.40
2022-09-19T06:48:49.488Z,0.40
2022-09-19T06:51:16.854Z,0.50
2022-09-19T06:53:48.234Z,0.50
2022-09-19T06:56:16.894Z,0.50
2022-09-19T06:58:44.255Z,0.50
2022-09-19T07:01:12.448Z,0.55
2022-09-19T07:03:42.405Z,0.47
2022-09-19T07:06:09.759Z,0.50
2022-09-19T07:08:38.587Z,0.40
2022-09-19T07:11:07.061Z,0.50
2022-09-19T07:13:35.735Z,0.50
2022-09-19T07:16:03.665Z,0.40
2022-09-19T07:18:31.185Z,0.50
2022-09-19T07:21:00.933Z,0.50
2022-09-19T07:23:28.364Z,0.50
2022-09-19T07:25:57.191Z,0.50
2022-09-19T07:28:25.213Z,0.50
2022-09-19T07:30:54.973Z,0.40
2022-09-19T07:33:23.166Z,0.40
2022-09-19T07:35:52.435Z,0.50
2022-09-19T07:38:21.752Z,0.50
2022-09-19T07:40:49.455Z,0.40
2022-09-19T07:43:18.395Z,0.40
2022-09-19T07:45:47.782Z,0.40
2022-09-19T07:48:18.016Z,0.45
2022-09-19T07:50:51.004Z,0.50
2022-09-19T07:53:22.749Z,0.40
2022-09-19T07:55:52.942Z,0.40
2022-09-19T07:58:21.975Z,0.40
2022-09-19T08:00:51.095Z,0.40
2022-09-19T08:03:21.315Z,0.40
2022-09-19T08:05:50.796Z,0.38
2022-09-19T08:08:19.520Z,0.50
2022-09-19T08:10:47.993Z,0.30
2022-09-19T08:13:17.519Z,0.40
2022-09-19T08:15:46.002Z,0.45
2022-09-19T08:18:15.733Z,0.40
2022-09-19T08:20:45.095Z,0.40
2022-09-19T08:23:14.279Z,0.40
2022-09-19T08:25:47.150Z,0.40
2022-09-19T08:28:14.811Z,0.40
2022-09-19T08:30:44.440Z,0.50
2022-09-19T08:33:13.506Z,0.40
2022-09-19T08:35:42.505Z,0.40
2022-09-19T08:38:12.871Z,0.40
2022-09-19T08:40:54.477Z,0.50
2022-09-19T08:43:33.600Z,0.40
2022-09-19T08:46:15.432Z,0.40
2022-09-19T08:48:57.266Z,0.40
2022-09-19T08:51:30.224Z,0.40
2022-09-19T08:54:02.417Z,0.40
2022-09-19T08:56:31.367Z,0.40
2022-09-19T08:59:03.399Z,0.40
2022-09-19T09:01:36.255Z,0.50
2022-09-19T09:04:16.166Z,0.50
2022-09-19T09:06:54.787Z,0.50
2022-09-19T09:09:30.095Z,0.40
2022-09-19T09:12:05.643Z,0.40
2022-09-19T09:15:08.888Z,0.30
2022-09-19T09:17:47.671Z,0.30
2022-09-19T09:20:30.006Z,0.30
2022-09-19T09:23:08.433Z,0.30
2022-09-19T09:25:41.473Z,0.30
2022-09-19T09:28:15.419Z,0.30
2022-09-19T09:30:48.205Z,0.40
2022-09-19T09:33:22.186Z,0.30
2022-09-19T09:35:53.438Z,0.30
2022-09-19T09:38:31.371Z,0.30
2022-09-19T09:41:27.227Z,0.38
2022-09-19T09:44:04.757Z,0.40
2022-09-19T09:46:44.446Z,0.30
2022-09-19T09:49:13.687Z,0.40
2022-09-19T09:51:51.541Z,0.45
2022-09-19T09:54:51.392Z,0.40
2022-09-19T09:57:33.451Z,0.50
2022-09-19T10:00:21.267Z,0.40
2022-09-19T10:03:17.659Z,0.40
2022-09-19T10:05:48.752Z,0.40
2022-09-19T10:08:22.056Z,0.47
2022-09-19T10:10:54.283Z,0.47
2022-09-19T10:13:27.351Z,0.50
2022-09-19T10:15:57.110Z,0.40
2022-09-19T10:18:30.276Z,0.40
2022-09-19T10:20:58.199Z,0.40
2022-09-19T10:23:27.286Z,0.30
2022-09-19T10:26:01.975Z,0.35
2022-09-19T10:28:34.382Z,0.32
2022-09-19T10:31:05.703Z,0.40
2022-09-19T10:33:41.047Z,0.40
2022-09-19T10:36:17.421Z,0.30
2022-09-19T10:38:55.029Z,0.40
2022-09-19T10:41:24.353Z,0.30
2022-09-19T10:43:55.601Z,0.32
2022-09-19T10:46:26.347Z,0.30
2022-09-19T10:48:57.883Z,0.30
2022-09-19T10:51:30.180Z,0.30
2022-09-19T10:53:58.865Z,0.30
2022-09-19T10:56:29.254Z,0.30
2022-09-19T10:59:04.407Z,0.30
2022-09-19T11:01:32.077Z,0.25
2022-09-19T11:04:02.123Z,0.40
2022-09-19T11:06:30.123Z,0.30
2022-09-19T11:08:58.767Z,0.30
2022-09-19T11:11:38.633Z,0.30
2022-09-19T11:14:18.109Z,0.40
2022-09-19T11:17:05.355Z,0.30
2022-09-19T11:19:50.255Z,0.30
2022-09-19T11:22:32.349Z,0.30
2022-09-19T11:25:08.761Z,0.20
2022-09-19T11:27:55.667Z,0.30
2022-09-19T11:30:27.091Z,0.30
2022-09-19T11:36:23.926Z,0.40
2022-09-19T11:41:57.776Z,0.20
2022-09-19T11:44:48.114Z,0.20
2022-09-19T11:47:34.184Z,0.30
2022-09-19T11:50:22.130Z,0.35
2022-09-19T11:53:05.955Z,0.40
2022-09-19T11:55:40.665Z,0.60
2022-09-19T11:58:19.739Z,0.60
2022-09-19T12:01:16.745Z,0.90
2022-09-19T12:04:07.271Z,0.50
2022-09-19T12:06:50.498Z,0.30
2022-09-19T12:09:28.110Z,0.40
2022-09-19T12:12:00.028Z,0.50
2022-09-19T12:14:30.129Z,0.50
2022-09-19T12:17:02.535Z,0.30
2022-09-19T12:19:37.475Z,0.30
2022-09-19T12:22:13.435Z,0.30
2022-09-19T12:24:53.538Z,0.30
2022-09-19T12:27:28.108Z,0.20
2022-09-19T12:30:03.926Z,0.20
2022-09-19T12:32:39.348Z,0.20
2022-09-19T12:35:21.128Z,0.30
2022-09-19T12:37:58.628Z,0.30
2022-09-19T12:40:32.351Z,0.30
2022-09-19T12:43:13.598Z,0.20
2022-09-19T12:45:47.136Z,0.30
2022-09-19T12:48:23.996Z,0.40
2022-09-19T12:50:58.079Z,0.30
2022-09-19T12:53:36.050Z,0.30
2022-09-19T12:56:06.242Z,0.30
2022-09-19T12:58:41.668Z,0.30
2022-09-19T13:01:21.825Z,0.30
2022-09-19T13:03:59.838Z,0.20
2022-09-19T13:06:33.600Z,0.20
2022-09-19T13:09:05.676Z,0.30
2022-09-19T13:11:40.505Z,0.30
2022-09-19T13:14:14.967Z,0.30
2022-09-19T13:17:09.185Z,0.30
2022-09-19T13:19:58.117Z,0.30
2022-09-19T13:22:48.734Z,0.35
2022-09-19T13:25:25.498Z,0.30
2022-09-19T13:28:25.412Z,0.30
2022-09-19T13:31:12.497Z,0.20
2022-09-19T13:33:49.561Z,0.20
2022-09-19T13:36:38.063Z,0.25
2022-09-19T13:39:48.325Z,0.30
2022-09-19T13:42:25.603Z,0.20
2022-09-19T13:45:03.023Z,0.30
2022-09-19T13:47:32.396Z,0.30
2022-09-19T13:50:08.710Z,0.30
2022-09-19T13:52:43.046Z,0.20
2022-09-19T13:55:21.173Z,0.17
2022-09-19T13:57:50.342Z,0.20
2022-09-19T14:00:38.648Z,0.20
2022-09-19T14:03:08.051Z,0.30
2022-09-19T14:05:41.415Z,0.20
2022-09-19T14:11:16.103Z,0.30
2022-09-19T14:13:45.602Z,0.30
2022-09-19T14:16:32.583Z,0.20
2022-09-19T14:19:00.174Z,0.30
2022-09-19T14:21:56.090Z,0.30
2022-09-19T14:24:43.070Z,0.50
2022-09-19T14:27:35.548Z,0.50
2022-09-19T14:30:07.844Z,0.45
2022-09-19T14:32:42.563Z,0.30
2022-09-19T14:35:35.123Z,0.20
2022-09-19T14:38:41.985Z,0.40
2022-09-19T14:41:15.817Z,0.30
2022-09-19T14:44:14.142Z,0.20
2022-09-19T14:46:47.325Z,0.20
2022-09-19T14:49:23.037Z,0.30
2022-09-19T14:51:58.997Z,0.32
2022-09-19T14:54:33.714Z,0.20
2022-09-19T14:57:02.878Z,0.28
2022-09-19T14:59:33.425Z,0.30
2022-09-19T15:02:19.462Z,0.20
2022-09-19T15:07:17.674Z,0.20
2022-09-19T15:09:45.208Z,0.25
2022-09-19T15:12:15.387Z,0.40
2022-09-19T15:14:46.670Z,0.30
2022-09-19T15:17:19.325Z,0.20
2022-09-19T15:19:48.342Z,0.20
2022-09-19T15:22:35.216Z,0.20
2022-09-19T15:25:07.968Z,0.30
2022-09-19T15:27:47.293Z,0.30
2022-09-19T15:30:27.146Z,0.30
2022-09-19T15:33:00.317Z,0.30
2022-09-19T15:35:29.846Z,0.30
2022-09-19T15:38:02.862Z,0.40
2022-09-19T15:40:32.359Z,0.35
2022-09-19T15:43:01.718Z,0.30
2022-09-19T15:45:38.810Z,0.30
2022-09-19T15:48:21.271Z,0.30
2022-09-19T15:50:51.846Z,0.40
2022-09-19T15:53:29.131Z,0.30
2022-09-19T15:56:03.814Z,0.20
2022-09-19T15:58:39.638Z,0.20
2022-09-19T16:01:14.832Z,0.22
2022-09-19T16:03:51.027Z,0.30
2022-09-19T16:06:43.051Z,0.40
2022-09-19T16:09:12.449Z,0.25
2022-09-19T16:11:45.352Z,0.22
2022-09-19T16:14:26.560Z,0.20
2022-09-19T16:16:55.670Z,0.20
2022-09-19T16:19:44.492Z,0.30
2022-09-19T16:22:14.323Z,0.30
2022-09-19T16:24:46.883Z,0.30
2022-09-19T16:27:15.603Z,0.30
2022-09-19T16:29:47.094Z,0.50
2022-09-19T16:32:19.168Z,0.47
2022-09-19T16:34:51.316Z,0.60
2022-09-19T16:37:27.992Z,0.50
2022-09-19T16:39:57.626Z,0.50
2022-09-19T16:42:31.226Z,0.50
2022-09-19T16:45:17.338Z,0.50
2022-09-19T16:47:45.577Z,0.50
2022-09-19T16:50:16.062Z,0.60
2022-09-19T16:52:46.069Z,0.50
2022-09-19T16:55:23.058Z,0.50
2022-09-19T16:57:51.551Z,0.50
2022-09-19T17:00:19.752Z,0.40
2022-09-19T17:02:47.108Z,0.57
2022-09-19T17:05:19.975Z,0.60
2022-09-19T17:07:49.448Z,0.70
2022-09-19T17:10:17.587Z,0.70
2022-09-19T17:12:45.298Z,0.40
2022-09-19T17:15:28.649Z,0.40
2022-09-19T17:17:56.349Z,0.60
2022-09-19T17:20:24.998Z,0.70
2022-09-19T17:22:52.811Z,0.60
2022-09-19T17:25:31.634Z,0.60
2022-09-19T17:27:59.579Z,0.60
2022-09-19T17:30:26.951Z,0.50
2022-09-19T17:32:54.968Z,0.60
2022-09-19T17:35:22.616Z,1.40
2022-09-19T17:37:51.303Z,1.02
2022-09-19T17:40:18.750Z,0.77
2022-09-19T17:42:46.627Z,0.60
2022-09-19T17:45:14.673Z,0.60
2022-09-19T17:47:44.821Z,0.60
2022-09-19T17:50:12.578Z,0.50
2022-09-19T17:52:39.976Z,0.50
2022-09-19T17:55:10.049Z,0.60
2022-09-19T17:57:38.229Z,0.50
2022-09-19T18:00:06.389Z,0.50
2022-09-19T18:02:51.331Z,0.40
2022-09-19T18:05:23.889Z,0.50
2022-09-19T18:07:54.476Z,0.55
2022-09-19T18:10:25.465Z,0.50
2022-09-19T18:12:53.142Z,0.47
2022-09-19T18:15:20.490Z,0.50
2022-09-19T18:17:48.297Z,0.50
2022-09-19T18:20:16.082Z,0.50
2022-09-19T18:22:43.983Z,0.50
2022-09-19T18:25:16.007Z,0.50
2022-09-19T18:27:45.404Z,0.55
2022-09-19T18:30:15.295Z,0.93
2022-09-19T18:32:42.913Z,0.82
2022-09-19T18:35:11.877Z,0.80
2022-09-19T18:37:39.613Z,0.63
2022-09-19T18:40:08.266Z,0.60
2022-09-19T18:42:35.663Z,0.60
2022-09-19T18:45:05.991Z,0.70
2022-09-19T18:47:34.068Z,0.80
2022-09-19T18:50:01.708Z,1.02
2022-09-19T18:52:29.189Z,0.52
2022-09-19T18:54:56.641Z,0.60
2022-09-19T18:57:24.356Z,0.60
2022-09-19T18:59:51.714Z,0.63
2022-09-19T19:02:21.315Z,0.70
2022-09-19T19:04:49.674Z,0.60
2022-09-19T19:07:17.076Z,0.70
2022-09-19T19:09:44.435Z,1.02
2022-09-19T19:12:34.606Z,0.57
2022-09-19T19:15:00.168Z,0.40
2022-09-19T19:17:28.958Z,0.40
2022-09-19T19:19:56.353Z,0.40
2022-09-19T19:22:23.729Z,0.50
2022-09-19T19:24:51.055Z,0.50
2022-09-19T19:27:18.703Z,0.50
2022-09-19T19:29:46.081Z,0.60
2022-09-19T19:32:14.017Z,0.60
2022-09-19T19:34:42.675Z,0.50
2022-09-19T19:37:10.031Z,0.50
2022-09-19T19:39:37.695Z,0.40
2022-09-19T19:42:05.127Z,0.40
2022-09-19T19:44:32.484Z,0.50
2022-09-19T19:47:00.181Z,0.38
2022-09-19T19:49:27.676Z,0.40
2022-09-19T19:51:56.967Z,0.40
2022-09-19T19:54:24.346Z,0.40
2022-09-19T19:56:51.742Z,0.40
2022-09-19T19:59:24.521Z,0.40
2022-09-19T20:01:52.586Z,0.40
2022-09-19T20:04:20.048Z,0.40
2022-09-19T20:06:47.390Z,0.30
2022-09-19T20:09:16.600Z,0.47
2022-09-19T20:11:46.896Z,0.38
2022-09-19T20:14:16.843Z,0.30
2022-09-19T20:16:46.117Z,0.40
2022-09-19T20:19:16.257Z,0.40
2022-09-19T20:21:45.699Z,0.40
2022-09-19T20:24:18.574Z,0.35
2022-09-19T20:26:47.503Z,0.40
2022-09-19T20:29:19.051Z,0.40
2022-09-19T20:31:46.632Z,0.40
2022-09-19T20:34:14.220Z,0.40
2022-09-19T20:36:42.245Z,0.35
2022-09-19T20:39:10.338Z,0.45
2022-09-19T20:41:43.837Z,0.40
2022-09-19T20:44:11.616Z,0.40
2022-09-19T20:46:40.077Z,0.50
2022-09-19T20:49:09.204Z,0.47
2022-09-19T20:51:38.886Z,0.40
2022-09-19T20:54:07.187Z,0.40
2022-09-19T20:56:34.930Z,0.40
2022-09-19T20:59:05.064Z,0.40
2022-09-19T21:01:35.537Z,0.30
2022-09-19T21:04:03.921Z,0.20
2022-09-19T21:06:31.327Z,0.30
2022-09-19T21:08:59.186Z,0.20
2022-09-19T21:11:27.143Z,0.30
2022-09-19T21:13:56.399Z,0.30
2022-09-19T21:16:27.332Z,0.40
2022-09-19T21:18:56.495Z,0.40
2022-09-19T21:21:26.319Z,0.43
2022-09-19T21:23:54.758Z,0.50
2022-09-19T21:26:23.996Z,0.50
2022-09-19T21:28:54.285Z,0.50
2022-09-19T21:31:23.646Z,0.50
2022-09-19T21:33:54.661Z,0.47
2022-09-19T21:36:22.419Z,0.45
2022-09-19T21:38:53.550Z,0.50
2022-09-19T21:41:21.214Z,0.50
2022-09-19T21:43:48.603Z,0.70
2022-09-19T21:46:17.744Z,0.60
2022-09-19T21:48:47.014Z,0.55
2022-09-19T21:51:17.746Z,0.47
2022-09-19T21:53:46.372Z,0.50
2022-09-19T21:56:14.343Z,0.60
2022-09-19T21:58:42.157Z,0.50
2022-09-19T22:01:15.955Z,0.50
2022-09-19T22:03:43.491Z,0.40
2022-09-19T22:06:11.961Z,0.50
2022-09-19T22:08:45.026Z,0.40
2022-09-19T22:11:15.095Z,0.40
2022-09-19T22:13:43.790Z,0.32
2022-09-19T22:16:15.182Z,0.40
2022-09-19T22:18:43.740Z,0.50
2022-09-19T22:21:11.852Z,0.40
2022-09-19T22:23:41.642Z,0.30
2022-09-19T22:26:11.454Z,0.40
2022-09-19T22:28:39.802Z,0.30
2022-09-19T22:31:08.979Z,0.38
2022-09-19T22:33:38.718Z,0.30
2022-09-19T22:36:07.761Z,0.40
2022-09-19T22:38:35.740Z,0.30
2022-09-19T22:41:06.303Z,0.30
2022-09-19T22:43:34.459Z,0.20
2022-09-19T22:46:06.546Z,0.30
2022-09-19T22:48:34.031Z,0.30
2022-09-19T22:51:01.627Z,0.20
2022-09-19T22:53:28.969Z,0.30
2022-09-19T22:55:57.827Z,0.30
2022-09-19T22:58:30.278Z,0.30
2022-09-19T23:01:01.829Z,0.30
2022-09-19T23:03:29.729Z,0.30
2022-09-19T23:06:05.474Z,0.20
2022-09-19T23:08:33.525Z,0.30
2022-09-19T23:11:02.130Z,0.30
2022-09-19T23:13:49.117Z,0.30
2022-09-19T23:16:19.687Z,0.20
2022-09-19T23:18:51.263Z,0.30
2022-09-19T23:21:19.115Z,0.30
2022-09-19T23:23:48.210Z,0.30
2022-09-19T23:26:15.999Z,0.20
2022-09-19T23:28:45.398Z,0.30
2022-09-19T23:31:13.116Z,0.22
2022-09-19T23:33:40.827Z,0.30
2022-09-19T23:36:12.059Z,0.30
2022-09-19T23:38:39.627Z,0.30
2022-09-19T23:41:08.255Z,0.30
2022-09-19T23:43:36.807Z,0.30
2022-09-19T23:46:07.197Z,0.30
2022-09-19T23:48:35.704Z,0.30
2022-09-19T23:51:03.643Z,0.30
2022-09-19T23:53:32.330Z,0.30
2022-09-19T23:56:00.547Z,0.30
2022-09-19T23:58:29.278Z,0.30
